Time;durP1;ratioP1;P1;durP2;ratioP2;P2;SDS_P1;SDS_P2;PMS_P1;PMS_P2;Temp;Humidity;BMP_temperature;BMP_pressure;BME280_temperature;BME280_humidity;BME280_pressure;Samples;Min_cycle;Max_cycle;Signal;HPM_P1;HPM_P2
2023/01/19 00:00:34;;;;;;;13.77;5.70;;;2.80;99.90;;;;;;5093398;28;20405;-66
2023/01/19 00:03:01;;;;;;;10.30;5.47;;;2.80;99.90;;;;;;5092408;28;20048;-66
2023/01/19 00:05:27;;;;;;;14.52;5.85;;;2.90;99.90;;;;;;5093653;28;20055;-67
2023/01/19 00:07:53;;;;;;;12.80;5.38;;;2.80;99.90;;;;;;5091891;28;20040;-65
2023/01/19 00:10:18;;;;;;;11.35;5.40;;;2.80;99.90;;;;;;5089887;28;20148;-66
2023/01/19 00:12:44;;;;;;;10.75;5.40;;;2.80;99.90;;;;;;5089069;28;20520;-66
2023/01/19 00:15:10;;;;;;;7.35;4.10;;;2.70;99.90;;;;;;5091167;28;20068;-66
2023/01/19 00:17:36;;;;;;;9.02;4.55;;;2.80;99.90;;;;;;5093325;28;20128;-66
2023/01/19 00:20:02;;;;;;;8.07;4.68;;;2.70;99.90;;;;;;5086132;28;20171;-68
2023/01/19 00:22:28;;;;;;;8.35;4.35;;;2.80;99.90;;;;;;5085586;28;20048;-66
2023/01/19 00:24:54;;;;;;;8.15;3.97;;;2.80;99.90;;;;;;5093370;28;20055;-65
2023/01/19 00:27:19;;;;;;;7.32;3.25;;;2.70;99.90;;;;;;5091916;28;20043;-65
2023/01/19 00:29:45;;;;;;;6.72;3.30;;;2.70;99.90;;;;;;5090689;28;20040;-65
2023/01/19 00:32:11;;;;;;;6.18;3.17;;;2.60;99.90;;;;;;5101103;28;20047;-65
2023/01/19 00:34:38;;;;;;;7.32;3.33;;;2.70;99.90;;;;;;5113521;28;20058;-66
2023/01/19 00:37:07;;;;;;;5.07;2.88;;;2.70;99.90;;;;;;5112531;28;20051;-68
2023/01/19 00:39:33;;;;;;;6.20;3.10;;;2.60;99.90;;;;;;5098478;28;20101;-65
2023/01/19 00:44:43;;;;;;;7.28;3.33;;;2.60;99.90;;;;;;5085610;28;20082;-65
2023/01/19 00:47:09;;;;;;;9.85;3.15;;;2.60;99.90;;;;;;5112606;28;20043;-65
2023/01/19 00:49:34;;;;;;;6.50;3.03;;;2.60;99.90;;;;;;5095021;28;20096;-65
2023/01/19 00:52:00;;;;;;;8.30;3.40;;;2.50;99.90;;;;;;5103707;28;20054;-65
2023/01/19 00:54:26;;;;;;;7.18;3.40;;;2.50;99.90;;;;;;5099447;28;20082;-64
2023/01/19 00:56:52;;;;;;;10.05;3.65;;;2.50;99.90;;;;;;5110777;28;20493;-66
2023/01/19 00:59:18;;;;;;;7.32;3.50;;;2.50;99.90;;;;;;5111504;28;20510;-64
2023/01/19 01:01:43;;;;;;;6.82;3.58;;;2.60;99.90;;;;;;5094031;28;20090;-65
2023/01/19 01:04:11;;;;;;;7.68;3.72;;;2.60;99.90;;;;;;5102621;28;20116;-65
2023/01/19 01:06:36;;;;;;;7.50;4.03;;;2.80;99.90;;;;;;5101279;28;20051;-65
2023/01/19 01:09:10;;;;;;;10.63;4.45;;;2.60;99.90;;;;;;5094052;28;20054;-65
2023/01/19 01:11:38;;;;;;;9.35;4.10;;;2.70;99.90;;;;;;5081318;28;20392;-67
2023/01/19 01:14:05;;;;;;;8.40;3.72;;;2.60;99.90;;;;;;5101740;28;20066;-65
2023/01/19 01:16:30;;;;;;;9.85;3.33;;;3.30;99.90;;;;;;5092891;28;20068;-64
2023/01/19 01:18:56;;;;;;;6.55;3.58;;;2.70;99.90;;;;;;5104591;28;20075;-65
2023/01/19 01:21:22;;;;;;;10.07;3.70;;;2.70;99.90;;;;;;5090499;28;20051;-66
2023/01/19 01:23:48;;;;;;;9.27;3.33;;;2.70;99.90;;;;;;5102349;28;20122;-66
2023/01/19 01:26:13;;;;;;;8.20;3.00;;;2.70;99.90;;;;;;5096675;28;20123;-65
2023/01/19 01:28:39;;;;;;;8.60;2.55;;;2.70;99.90;;;;;;5103711;28;20043;-66
2023/01/19 01:31:05;;;;;;;5.63;2.50;;;2.80;99.90;;;;;;5106042;28;20096;-68
2023/01/19 01:33:30;;;;;;;7.10;2.97;;;2.80;99.90;;;;;;5102850;28;20501;-66
2023/01/19 01:35:56;;;;;;;8.43;2.50;;;2.70;99.90;;;;;;5102800;28;20082;-66
2023/01/19 01:38:22;;;;;;;8.10;2.50;;;2.80;99.90;;;;;;5086722;28;20177;-65
2023/01/19 01:40:48;;;;;;;6.80;2.38;;;2.80;99.90;;;;;;5098007;28;20536;-65
2023/01/19 01:43:16;;;;;;;5.60;2.13;;;3.10;99.90;;;;;;5086070;28;20059;-67
2023/01/19 01:45:42;;;;;;;6.15;2.40;;;2.80;99.90;;;;;;5107573;28;20110;-66
2023/01/19 01:48:25;;;;;;;6.25;2.03;;;2.80;99.90;;;;;;5102368;28;20044;-66
2023/01/19 01:51:25;;;;;;;6.82;2.28;;;2.90;99.90;;;;;;5088534;28;20051;-66
2023/01/19 01:54:09;;;;;;;5.57;1.95;;;3.00;99.90;;;;;;5085071;28;20055;-67
2023/01/19 01:56:38;;;;;;;5.97;2.00;;;2.80;99.90;;;;;;5081158;28;20098;-65
2023/01/19 01:59:09;;;;;;;7.03;2.15;;;2.90;99.90;;;;;;5108060;28;20097;-66
2023/01/19 02:04:20;;;;;;;6.75;1.92;;;3.00;99.90;;;;;;5091085;28;20048;-67
2023/01/19 02:15:04;;;;;;;6.80;3.20;;;3.00;99.90;;;;;;5100461;28;20056;-65
2023/01/19 02:17:29;;;;;;;5.78;3.47;;;3.00;99.90;;;;;;5099705;28;20050;-69
2023/01/19 02:19:56;;;;;;;6.50;3.80;;;3.00;99.90;;;;;;5093617;28;20043;-66
2023/01/19 02:22:34;;;;;;;5.43;4.18;;;3.00;99.90;;;;;;5081604;28;20071;-64
2023/01/19 02:25:04;;;;;;;8.88;4.07;;;2.90;99.90;;;;;;5111384;28;20048;-65
2023/01/19 02:27:31;;;;;;;8.05;4.18;;;2.90;99.90;;;;;;5110129;28;20090;-65
2023/01/19 02:29:59;;;;;;;9.57;4.88;;;2.90;99.90;;;;;;5104678;28;20133;-68
2023/01/19 02:32:25;;;;;;;6.20;4.75;;;2.90;99.90;;;;;;5099437;28;20058;-65
2023/01/19 02:34:51;;;;;;;6.38;5.03;;;2.80;99.90;;;;;;5106367;28;20130;-67
2023/01/19 02:37:18;;;;;;;10.95;5.20;;;2.80;99.90;;;;;;5111038;28;20043;-73
2023/01/19 02:39:49;;;;;;;7.55;4.15;;;2.80;99.90;;;;;;5096925;28;20047;-66
2023/01/19 02:42:18;;;;;;;6.97;5.20;;;3.10;99.90;;;;;;5095827;28;20032;-65
2023/01/19 02:44:47;;;;;;;7.70;5.38;;;2.70;99.90;;;;;;5106308;28;20070;-66
2023/01/19 02:47:13;;;;;;;8.95;5.60;;;2.80;99.90;;;;;;5111036;28;20047;-65
2023/01/19 02:49:39;;;;;;;7.47;4.97;;;2.80;99.90;;;;;;5099558;28;20047;-66
2023/01/19 02:52:09;;;;;;;7.78;5.22;;;2.80;99.90;;;;;;5084950;28;20044;-72
2023/01/19 02:55:00;;;;;;;8.90;5.57;;;2.80;99.90;;;;;;5102405;28;20077;-65
2023/01/19 02:57:43;;;;;;;7.90;4.80;;;2.70;99.90;;;;;;5095010;28;20095;-64
2023/01/19 03:00:12;;;;;;;8.30;4.60;;;2.70;99.90;;;;;;5092714;28;20133;-65
2023/01/19 03:02:53;;;;;;;7.43;4.65;;;2.80;99.90;;;;;;5077934;28;20048;-64
2023/01/19 03:05:49;;;;;;;6.82;4.85;;;2.70;99.90;;;;;;5103045;28;20058;-64
2023/01/19 03:08:27;;;;;;;7.38;4.97;;;2.70;99.90;;;;;;5091716;28;20051;-65
2023/01/19 03:11:05;;;;;;;7.45;5.00;;;2.80;99.90;;;;;;5104141;28;20040;-64
2023/01/19 03:14:09;;;;;;;8.98;4.93;;;2.70;99.90;;;;;;5107108;28;20044;-64
2023/01/19 03:16:37;;;;;;;6.05;4.07;;;2.80;99.90;;;;;;5016130;28;20057;-65
2023/01/19 03:19:20;;;;;;;7.15;4.65;;;2.70;99.90;;;;;;5092188;28;20056;-65
2023/01/19 03:21:51;;;;;;;7.47;4.20;;;2.70;99.90;;;;;;5102763;28;20040;-65
2023/01/19 03:24:19;;;;;;;7.35;4.75;;;2.70;99.90;;;;;;5109166;28;20388;-66
2023/01/19 03:26:51;;;;;;;6.15;4.50;;;2.60;99.90;;;;;;5102976;28;20046;-65
2023/01/19 03:29:19;;;;;;;7.15;4.88;;;2.60;99.90;;;;;;5106232;28;20047;-66
2023/01/19 03:31:48;;;;;;;8.48;4.90;;;2.60;99.90;;;;;;5079824;28;20057;-65
2023/01/19 03:34:15;;;;;;;7.60;4.63;;;2.60;99.90;;;;;;5091581;28;20083;-65
2023/01/19 03:37:09;;;;;;;7.43;4.70;;;2.60;99.90;;;;;;5087959;28;20095;-68
2023/01/19 03:39:35;;;;;;;10.48;4.93;;;2.60;99.90;;;;;;5081362;28;20052;-64
2023/01/19 03:42:08;;;;;;;7.80;4.97;;;2.50;99.90;;;;;;5086196;28;20036;-65
2023/01/19 03:44:37;;;;;;;8.07;5.25;;;2.60;99.90;;;;;;5082668;28;20131;-64
2023/01/19 03:47:06;;;;;;;9.43;4.88;;;2.60;99.90;;;;;;5069777;28;20057;-65
2023/01/19 03:49:33;;;;;;;8.43;5.10;;;2.60;99.90;;;;;;5093659;28;20086;-65
2023/01/19 03:51:59;;;;;;;10.27;5.68;;;2.60;99.90;;;;;;5092958;28;20047;-65
2023/01/19 03:54:25;;;;;;;8.35;5.40;;;2.60;99.90;;;;;;5080099;28;20119;-65
2023/01/19 03:56:51;;;;;;;7.88;5.85;;;2.60;99.90;;;;;;5089057;28;20152;-65
2023/01/19 03:59:18;;;;;;;9.23;5.18;;;2.60;99.90;;;;;;5092065;28;20100;-65
2023/01/19 04:01:45;;;;;;;10.18;5.88;;;2.60;99.90;;;;;;5092996;28;20076;-65
2023/01/19 04:04:12;;;;;;;8.77;5.70;;;2.50;99.90;;;;;;5089698;28;20044;-65
2023/01/19 04:06:38;;;;;;;12.20;5.88;;;2.60;99.90;;;;;;5093173;28;20071;-65
2023/01/19 04:09:04;;;;;;;11.10;5.63;;;2.60;99.90;;;;;;5085695;28;20057;-66
2023/01/19 04:11:30;;;;;;;9.30;5.88;;;2.60;99.90;;;;;;5076927;28;20040;-73
2023/01/19 04:13:56;;;;;;;8.15;5.57;;;2.60;99.90;;;;;;5090209;28;20177;-66
2023/01/19 04:16:22;;;;;;;12.27;5.60;;;2.70;99.90;;;;;;5088391;28;20040;-65
2023/01/19 04:18:48;;;;;;;9.63;5.63;;;2.80;99.90;;;;;;5080609;28;21340;-66
2023/01/19 04:21:15;;;;;;;9.40;5.57;;;2.80;99.90;;;;;;5091355;28;20397;-67
2023/01/19 04:23:41;;;;;;;10.02;5.95;;;2.70;99.90;;;;;;5092088;28;20044;-66
2023/01/19 04:26:07;;;;;;;8.18;5.15;;;2.60;99.90;;;;;;5093045;28;20462;-66
2023/01/19 04:28:35;;;;;;;9.18;5.15;;;2.70;99.90;;;;;;5092333;28;20090;-73
2023/01/19 04:31:01;;;;;;;9.52;5.35;;;2.70;99.90;;;;;;5092098;28;20159;-66
2023/01/19 04:33:27;;;;;;;8.50;5.50;;;2.70;99.90;;;;;;5107449;28;20157;-69
2023/01/19 04:35:54;;;;;;;11.48;5.55;;;2.70;99.90;;;;;;5088970;28;20048;-66
2023/01/19 04:38:21;;;;;;;11.23;6.32;;;2.70;99.90;;;;;;5107830;28;20055;-66
2023/01/19 04:40:51;;;;;;;15.15;6.32;;;2.90;99.90;;;;;;5102358;28;20047;-68
2023/01/19 04:43:21;;;;;;;12.77;5.78;;;2.60;99.90;;;;;;5108391;28;20075;-65
2023/01/19 04:45:47;;;;;;;12.68;6.05;;;2.60;99.90;;;;;;5103948;28;20085;-67
2023/01/19 04:48:14;;;;;;;12.60;6.70;;;2.50;99.90;;;;;;5088750;28;20047;-66
2023/01/19 04:50:40;;;;;;;8.70;5.82;;;2.50;99.90;;;;;;5102641;28;20040;-66
2023/01/19 04:53:07;;;;;;;10.07;6.28;;;2.50;99.90;;;;;;5093043;28;20123;-66
2023/01/19 04:55:33;;;;;;;12.10;6.20;;;2.60;99.90;;;;;;5093957;28;20112;-65
2023/01/19 04:57:59;;;;;;;9.88;6.38;;;2.60;99.90;;;;;;5092501;28;20480;-67
2023/01/19 05:00:25;;;;;;;9.95;6.20;;;2.50;99.90;;;;;;5098453;28;20101;-66
2023/01/19 05:02:51;;;;;;;10.15;6.07;;;2.50;99.90;;;;;;5094265;28;20123;-65
2023/01/19 05:05:17;;;;;;;11.95;5.97;;;2.60;99.90;;;;;;5108379;28;20066;-66
2023/01/19 05:07:43;;;;;;;12.55;6.45;;;2.50;99.90;;;;;;5093550;28;20047;-66
2023/01/19 05:10:09;;;;;;;9.80;5.82;;;2.50;99.90;;;;;;5106869;28;20048;-66
2023/01/19 05:12:35;;;;;;;10.68;6.35;;;2.50;99.90;;;;;;5106609;28;20502;-65
2023/01/19 05:15:01;;;;;;;13.50;6.10;;;2.50;99.90;;;;;;5074032;28;20044;-66
2023/01/19 05:17:27;;;;;;;10.55;5.82;;;2.50;99.90;;;;;;5088792;28;20484;-66
2023/01/19 05:19:53;;;;;;;10.65;5.75;;;2.60;99.90;;;;;;5099760;28;20075;-66
2023/01/19 05:22:18;;;;;;;10.02;5.43;;;2.60;99.90;;;;;;5107843;28;20044;-65
2023/01/19 05:24:44;;;;;;;9.32;4.60;;;2.50;99.90;;;;;;5094105;28;20043;-68
2023/01/19 05:27:10;;;;;;;8.93;4.05;;;2.70;99.90;;;;;;5102481;28;20055;-67
2023/01/19 05:29:36;;;;;;;11.05;3.55;;;2.60;99.90;;;;;;5102250;28;20044;-66
2023/01/19 05:32:01;;;;;;;14.75;4.00;;;2.50;99.90;;;;;;5092913;28;20063;-66
2023/01/19 05:34:28;;;;;;;8.32;3.30;;;2.60;99.90;;;;;;5108370;28;20059;-66
2023/01/19 05:36:53;;;;;;;7.07;3.00;;;2.70;99.90;;;;;;5109529;28;20127;-67
2023/01/19 05:39:19;;;;;;;13.32;3.25;;;2.60;99.90;;;;;;5101642;28;20123;-66
2023/01/19 05:41:45;;;;;;;9.70;2.83;;;2.70;99.90;;;;;;5103184;28;20481;-65
2023/01/19 05:44:12;;;;;;;6.15;2.80;;;2.60;99.90;;;;;;5082515;28;20054;-66
2023/01/19 05:46:38;;;;;;;9.48;2.70;;;2.70;99.90;;;;;;5111880;28;20071;-66
2023/01/19 05:49:06;;;;;;;6.43;2.40;;;2.60;99.90;;;;;;5108239;28;20071;-65
2023/01/19 05:51:36;;;;;;;17.83;2.38;;;2.60;99.90;;;;;;5111946;28;20165;-66
2023/01/19 05:54:03;;;;;;;11.15;2.10;;;2.60;99.90;;;;;;5111066;28;20202;-65
2023/01/19 05:56:29;;;;;;;8.60;2.13;;;2.60;99.90;;;;;;5112053;28;20425;-64
2023/01/19 05:58:55;;;;;;;9.32;1.90;;;2.70;99.90;;;;;;5085640;28;20032;-65
2023/01/19 06:01:21;;;;;;;12.50;2.05;;;2.90;99.90;;;;;;5101374;28;20046;-65
2023/01/19 06:03:47;;;;;;;9.27;2.17;;;2.70;99.90;;;;;;5098434;28;20044;-65
2023/01/19 06:06:14;;;;;;;8.30;2.30;;;2.70;99.90;;;;;;5102937;28;20500;-64
2023/01/19 06:08:40;;;;;;;6.28;1.88;;;2.70;99.90;;;;;;5102576;28;20046;-68
2023/01/19 06:11:06;;;;;;;8.75;2.10;;;2.70;99.90;;;;;;5103536;28;20073;-65
2023/01/19 06:13:32;;;;;;;3.45;1.50;;;2.80;99.90;;;;;;5102859;28;20044;-66
2023/01/19 06:15:59;;;;;;;5.20;1.40;;;2.80;99.90;;;;;;5110667;28;20035;-66
2023/01/19 06:18:25;;;;;;;9.10;1.85;;;2.80;99.90;;;;;;5109857;28;20031;-66
2023/01/19 06:20:57;;;;;;;5.95;1.85;;;2.80;99.90;;;;;;5062117;28;20500;-65
2023/01/19 06:23:24;;;;;;;6.40;1.60;;;2.80;99.90;;;;;;5075167;28;20118;-65
2023/01/19 06:25:50;;;;;;;8.02;1.52;;;2.90;99.90;;;;;;5092601;28;20558;-66
2023/01/19 06:28:16;;;;;;;8.98;1.80;;;2.90;99.90;;;;;;5076370;28;20051;-65
2023/01/19 06:30:42;;;;;;;8.82;2.13;;;3.20;99.90;;;;;;5109182;28;20473;-67
2023/01/19 06:33:08;;;;;;;9.80;1.73;;;3.00;99.90;;;;;;5084466;28;20052;-66
2023/01/19 06:35:34;;;;;;;7.95;1.60;;;3.00;99.90;;;;;;5080557;28;20059;-67
2023/01/19 06:38:00;;;;;;;6.20;1.65;;;3.00;99.90;;;;;;5109457;28;20048;-69
2023/01/19 06:40:26;;;;;;;8.80;1.40;;;3.00;99.90;;;;;;5104385;28;20054;-66
2023/01/19 06:42:52;;;;;;;12.05;2.15;;;3.00;99.90;;;;;;5100805;28;20040;-66
2023/01/19 06:45:17;;;;;;;6.57;1.83;;;3.00;99.90;;;;;;5099056;28;20047;-67
2023/01/19 06:47:46;;;;;;;12.57;2.30;;;3.00;99.90;;;;;;5092988;28;20044;-67
2023/01/19 06:50:12;;;;;;;11.05;1.90;;;2.90;99.90;;;;;;5110556;28;20048;-66
2023/01/19 06:52:41;;;;;;;7.05;1.90;;;2.90;99.90;;;;;;5080793;28;20051;-65
2023/01/19 06:55:09;;;;;;;9.88;1.90;;;2.80;99.90;;;;;;5097358;28;20040;-67
2023/01/19 06:57:39;;;;;;;11.57;2.83;;;2.90;99.90;;;;;;5089468;28;20040;-66
2023/01/19 07:00:07;;;;;;;13.43;2.58;;;2.80;99.90;;;;;;5073763;28;20044;-66
2023/01/19 07:02:33;;;;;;;13.88;2.83;;;2.90;99.90;;;;;;5114251;28;20141;-66
2023/01/19 07:04:59;;;;;;;17.60;3.10;;;2.90;99.90;;;;;;5076535;28;20115;-67
2023/01/19 07:07:25;;;;;;;14.20;2.63;;;2.90;99.90;;;;;;5102808;28;20123;-66
2023/01/19 07:09:51;;;;;;;11.48;2.40;;;2.80;99.90;;;;;;5104769;28;20376;-72
2023/01/19 07:12:17;;;;;;;13.85;2.95;;;2.90;99.90;;;;;;5092914;28;20107;-64
2023/01/19 07:14:43;;;;;;;12.43;2.60;;;2.80;99.90;;;;;;5095686;28;20481;-65
2023/01/19 07:17:09;;;;;;;12.57;2.42;;;2.80;99.90;;;;;;5087472;28;20044;-65
2023/01/19 07:19:35;;;;;;;10.95;2.55;;;2.80;99.90;;;;;;5079159;28;20144;-66
2023/01/19 07:22:02;;;;;;;9.85;1.80;;;2.80;99.90;;;;;;5099587;28;20513;-66
2023/01/19 07:24:29;;;;;;;16.25;3.17;;;2.80;99.90;;;;;;5081956;28;20365;-68
2023/01/19 07:26:55;;;;;;;12.23;2.50;;;2.80;99.90;;;;;;5076803;28;20047;-73
2023/01/19 07:29:21;;;;;;;10.02;2.10;;;2.80;99.90;;;;;;5099811;28;20047;-66
2023/01/19 07:31:47;;;;;;;9.82;2.67;;;2.80;99.90;;;;;;5109108;28;20172;-65
2023/01/19 07:34:14;;;;;;;13.20;2.72;;;2.90;99.90;;;;;;5087279;28;20285;-66
2023/01/19 07:36:40;;;;;;;8.52;1.98;;;3.00;99.90;;;;;;5102181;28;20039;-66
2023/01/19 07:39:05;;;;;;;9.32;2.85;;;3.20;99.90;;;;;;5112886;28;20054;-66
2023/01/19 07:41:32;;;;;;;11.18;2.97;;;3.00;99.90;;;;;;5089601;28;20101;-69
2023/01/19 07:43:57;;;;;;;12.32;3.30;;;3.10;99.90;;;;;;5109179;28;20040;-71
2023/01/19 07:46:23;;;;;;;12.90;2.70;;;3.10;99.90;;;;;;5075051;28;20468;-66
2023/01/19 07:48:49;;;;;;;14.02;3.00;;;3.10;99.90;;;;;;5107683;28;20082;-65
2023/01/19 07:51:17;;;;;;;15.57;3.53;;;3.20;99.90;;;;;;5091214;28;20529;-66
2023/01/19 07:53:44;;;;;;;17.80;3.20;;;3.20;99.90;;;;;;5092608;28;20474;-65
2023/01/19 07:56:10;;;;;;;13.43;2.97;;;3.20;99.90;;;;;;5103330;28;20500;-65
2023/01/19 07:58:37;;;;;;;13.07;3.03;;;3.20;99.90;;;;;;5110421;28;20039;-64
2023/01/19 08:01:11;;;;;;;16.23;2.92;;;3.20;99.90;;;;;;5109680;28;20492;-70
2023/01/19 08:03:37;;;;;;;18.20;2.93;;;3.20;99.90;;;;;;5109941;28;20046;-65
2023/01/19 08:06:04;;;;;;;15.38;3.08;;;3.30;99.90;;;;;;5110441;28;20281;-65
2023/01/19 08:08:31;;;;;;;20.40;3.20;;;3.30;99.90;;;;;;5095758;28;20051;-67
2023/01/19 08:10:57;;;;;;;14.38;3.22;;;3.30;99.90;;;;;;5090892;28;20044;-65
2023/01/19 08:13:23;;;;;;;12.88;2.65;;;3.60;99.90;;;;;;5092461;28;20035;-66
2023/01/19 08:15:50;;;;;;;10.93;2.50;;;3.30;99.90;;;;;;5094795;28;20036;-65
2023/01/19 08:18:16;;;;;;;12.55;2.88;;;3.30;99.90;;;;;;5107329;28;20074;-65
2023/01/19 08:20:42;;;;;;;12.13;2.72;;;3.30;99.90;;;;;;5107532;28;20032;-65
2023/01/19 08:23:07;;;;;;;11.68;2.63;;;3.30;99.90;;;;;;5106150;28;20063;-68
2023/01/19 08:25:36;;;;;;;8.27;2.45;;;3.40;99.90;;;;;;5094687;28;20404;-69
2023/01/19 08:28:03;;;;;;;15.23;2.90;;;3.50;99.90;;;;;;5113392;28;20409;-73
2023/01/19 08:30:29;;;;;;;14.40;2.92;;;3.40;99.90;;;;;;5077630;28;20541;-68
2023/01/19 08:33:06;;;;;;;14.40;3.72;;;3.50;99.90;;;;;;5104723;28;20126;-68
2023/01/19 08:35:46;;;;;;;13.90;2.95;;;3.50;99.90;;;;;;5099729;28;20924;-68
2023/01/19 08:38:11;;;;;;;11.77;2.75;;;3.60;99.90;;;;;;5085022;28;20058;-67
2023/01/19 08:40:39;;;;;;;14.32;2.55;;;3.60;99.90;;;;;;5093375;28;20047;-68
2023/01/19 08:43:08;;;;;;;15.80;3.20;;;3.70;99.90;;;;;;5104725;28;20101;-71
2023/01/19 08:45:35;;;;;;;15.63;2.88;;;3.80;99.90;;;;;;5107969;28;20400;-70
2023/01/19 08:48:01;;;;;;;16.52;3.08;;;3.70;99.90;;;;;;5107556;28;20371;-70
2023/01/19 08:50:32;;;;;;;18.80;3.28;;;3.80;99.90;;;;;;5077703;28;20048;-70
2023/01/19 08:52:59;;;;;;;17.17;2.83;;;3.90;99.90;;;;;;5081911;28;20377;-69
2023/01/19 08:55:25;;;;;;;13.93;2.25;;;3.90;99.90;;;;;;5078174;28;20040;-70
2023/01/19 08:57:52;;;;;;;11.23;2.47;;;4.00;99.90;;;;;;5080447;28;20044;-71
2023/01/19 09:00:19;;;;;;;12.63;2.63;;;4.10;99.90;;;;;;5088850;28;20036;-68
2023/01/19 09:02:46;;;;;;;22.48;3.35;;;4.20;99.90;;;;;;5068444;28;20052;-69
2023/01/19 09:05:11;;;;;;;16.67;2.60;;;4.30;99.90;;;;;;5076515;28;20056;-71
2023/01/19 09:07:37;;;;;;;13.77;2.95;;;4.50;99.90;;;;;;5104076;28;20094;-71
2023/01/19 09:10:04;;;;;;;18.17;4.32;;;4.30;99.90;;;;;;5098428;28;20102;-70
2023/01/19 09:12:30;;;;;;;20.58;3.35;;;4.30;99.90;;;;;;5081918;28;20055;-71
2023/01/19 09:14:56;;;;;;;15.50;3.33;;;4.30;99.90;;;;;;5094379;28;20039;-69
2023/01/19 09:17:22;;;;;;;15.40;3.30;;;4.20;99.90;;;;;;5089192;28;20475;-69
2023/01/19 09:19:47;;;;;;;15.38;3.42;;;4.20;99.90;;;;;;5071836;28;20108;-68
2023/01/19 09:22:13;;;;;;;13.52;3.50;;;4.20;99.90;;;;;;5093882;28;20511;-68
2023/01/19 09:24:39;;;;;;;17.83;3.13;;;4.00;99.90;;;;;;5073712;28;20032;-68
2023/01/19 09:27:04;;;;;;;14.50;3.22;;;4.00;99.90;;;;;;5091820;28;20394;-69
2023/01/19 09:29:30;;;;;;;13.98;2.53;;;3.90;99.90;;;;;;5092431;28;20050;-70
2023/01/19 09:31:56;;;;;;;26.58;3.47;;;3.90;99.90;;;;;;5093616;28;20064;-68
2023/01/19 09:34:24;;;;;;;13.45;2.90;;;4.00;99.90;;;;;;5068587;28;20397;-68
2023/01/19 09:36:51;;;;;;;20.52;3.42;;;3.70;99.90;;;;;;5107406;28;20168;-69
2023/01/19 09:39:17;;;;;;;15.07;2.50;;;3.70;99.90;;;;;;5103719;28;20054;-69
2023/01/19 09:41:47;;;;;;;11.15;2.60;;;3.70;99.90;;;;;;5100547;28;20214;-68
2023/01/19 09:44:26;;;;;;;13.18;3.00;;;3.60;99.90;;;;;;5091808;28;20051;-71
2023/01/19 09:46:52;;;;;;;20.90;3.75;;;3.70;99.90;;;;;;5110389;28;20048;-71
2023/01/19 09:49:35;;;;;;;10.98;2.72;;;3.60;99.90;;;;;;5058400;28;20040;-69
2023/01/19 09:52:01;;;;;;;16.95;2.92;;;3.70;99.90;;;;;;5098313;28;20470;-69
2023/01/19 09:54:48;;;;;;;16.13;2.53;;;3.70;99.90;;;;;;5088839;28;20153;-68
2023/01/19 09:57:14;;;;;;;8.73;2.10;;;3.80;99.90;;;;;;5091971;28;20533;-72
2023/01/19 09:59:42;;;;;;;9.27;2.42;;;3.90;99.90;;;;;;5092341;28;20039;-68
2023/01/19 10:02:43;;;;;;;6.78;1.80;;;3.90;99.90;;;;;;5089944;28;20051;-68
2023/01/19 10:05:35;;;;;;;15.60;2.10;;;4.00;99.90;;;;;;5093467;28;20051;-68
2023/01/19 10:08:25;;;;;;;12.65;2.42;;;4.10;99.90;;;;;;5084893;28;20046;-68
2023/01/19 10:10:54;;;;;;;10.52;2.22;;;4.10;99.90;;;;;;5107664;28;20040;-68
2023/01/19 10:13:25;;;;;;;11.32;2.28;;;4.10;99.90;;;;;;5110207;28;20046;-68
2023/01/19 10:16:24;;;;;;;11.98;2.72;;;4.20;99.90;;;;;;5085499;28;20111;-69
2023/01/19 10:18:56;;;;;;;12.13;2.72;;;4.20;99.90;;;;;;5106410;28;20131;-69
2023/01/19 10:21:26;;;;;;;19.00;3.58;;;4.30;99.90;;;;;;5109186;28;20115;-68
2023/01/19 10:24:11;;;;;;;12.07;2.45;;;4.30;99.90;;;;;;5092801;28;20044;-69
2023/01/19 10:26:46;;;;;;;13.65;2.35;;;4.40;99.90;;;;;;5100529;28;20112;-67
2023/01/19 10:29:36;;;;;;;11.20;2.85;;;4.40;99.90;;;;;;5105737;28;20131;-67
2023/01/19 10:32:18;;;;;;;21.73;3.38;;;4.50;99.90;;;;;;5077231;28;20079;-68
2023/01/19 10:34:45;;;;;;;12.88;2.83;;;4.60;99.90;;;;;;5089677;28;20492;-67
2023/01/19 10:37:31;;;;;;;10.75;2.70;;;4.60;99.90;;;;;;5088265;28;20055;-67
2023/01/19 10:40:01;;;;;;;12.63;3.70;;;4.70;99.90;;;;;;5091470;28;20052;-67
2023/01/19 10:42:30;;;;;;;16.55;2.78;;;4.70;99.90;;;;;;5087148;28;20463;-66
2023/01/19 10:44:55;;;;;;;13.00;3.08;;;4.80;99.90;;;;;;5087871;28;20052;-67
2023/01/19 10:47:28;;;;;;;12.48;2.95;;;4.80;99.90;;;;;;5083334;28;20046;-67
2023/01/19 10:49:54;;;;;;;13.38;2.90;;;4.90;99.90;;;;;;5096775;28;20059;-67
2023/01/19 10:52:34;;;;;;;14.07;2.78;;;4.80;99.90;;;;;;5103191;28;20054;-65
2023/01/19 10:55:02;;;;;;;12.00;2.95;;;4.90;99.90;;;;;;5074512;28;20133;-66
2023/01/19 10:57:42;;;;;;;11.75;2.40;;;4.90;99.90;;;;;;5104598;28;20043;-66
2023/01/19 11:00:37;;;;;;;9.07;2.35;;;5.00;99.90;;;;;;5098991;28;20039;-67
2023/01/19 11:03:24;;;;;;;9.77;2.80;;;5.00;99.90;;;;;;5087412;28;20052;-67
2023/01/19 11:05:50;;;;;;;15.00;3.60;;;5.00;99.90;;;;;;5085063;28;20059;-67
2023/01/19 11:08:29;;;;;;;12.50;3.03;;;5.10;99.90;;;;;;5108765;28;20043;-67
2023/01/19 11:11:02;;;;;;;12.30;3.00;;;5.10;99.90;;;;;;5092600;28;20447;-66
2023/01/19 11:13:28;;;;;;;14.35;2.97;;;5.10;99.90;;;;;;5098110;28;20032;-67
2023/01/19 11:16:03;;;;;;;15.65;2.67;;;5.20;99.90;;;;;;5098555;28;20036;-67
2023/01/19 11:18:28;;;;;;;13.85;2.33;;;5.20;99.90;;;;;;5060135;28;20049;-67
2023/01/19 11:20:57;;;;;;;12.82;2.75;;;5.10;99.90;;;;;;5111084;28;20115;-68
2023/01/19 11:23:43;;;;;;;13.50;2.70;;;5.10;99.90;;;;;;5107480;28;20043;-68
2023/01/19 11:26:15;;;;;;;12.82;2.17;;;5.10;99.90;;;;;;5087467;28;20055;-71
2023/01/19 11:28:50;;;;;;;11.07;2.13;;;5.10;99.90;;;;;;5095429;28;20442;-71
2023/01/19 11:31:17;;;;;;;;;;;5.10;99.90;;;;;;5097792;28;20137;-69
2023/01/19 11:33:51;;;;;;;10.57;2.80;;;5.20;99.90;;;;;;5105366;28;20254;-69
2023/01/19 11:36:35;;;;;;;10.82;2.92;;;5.20;99.90;;;;;;5073302;28;20059;-69
2023/01/19 11:39:26;;;;;;;12.45;2.22;;;5.30;99.90;;;;;;5099284;28;20089;-68
2023/01/19 11:42:00;;;;;;;11.82;2.88;;;5.30;99.90;;;;;;5088466;28;20040;-69
2023/01/19 11:44:32;;;;;;;9.38;2.30;;;5.40;99.90;;;;;;5075309;28;20039;-69
2023/01/19 11:47:12;;;;;;;10.18;2.15;;;5.50;99.90;;;;;;5106430;28;20050;-68
2023/01/19 11:49:59;;;;;;;10.23;2.60;;;5.60;99.90;;;;;;5086529;28;20122;-67
2023/01/19 11:52:33;;;;;;;12.50;2.47;;;5.60;99.90;;;;;;5113742;28;20127;-67
2023/01/19 11:55:04;;;;;;;;;;;5.60;99.90;;;;;;5104174;28;20127;-70
2023/01/19 11:57:29;;;;;;;19.55;2.80;;;5.60;99.90;;;;;;5092198;28;19920;-66
2023/01/19 11:59:57;;;;;;;16.17;2.95;;;5.60;99.90;;;;;;5092179;28;20129;-68
2023/01/19 12:02:27;;;;;;;9.75;2.35;;;5.60;99.90;;;;;;5114156;28;20104;-68
2023/01/19 12:04:58;;;;;;;12.98;2.47;;;5.60;99.90;;;;;;5083797;28;20458;-68
2023/01/19 12:07:29;;;;;;;10.57;1.90;;;5.60;99.90;;;;;;5109998;28;20402;-68
2023/01/19 12:10:15;;;;;;;16.42;2.40;;;5.60;99.90;;;;;;5114102;28;20472;-69
2023/01/19 12:12:42;;;;;;;10.80;2.03;;;5.40;99.90;;;;;;5113576;28;20055;-68
2023/01/19 12:15:30;;;;;;;6.38;1.58;;;5.30;99.90;;;;;;5110157;28;20039;-68
2023/01/19 12:17:59;;;;;;;9.45;1.83;;;5.30;99.90;;;;;;5094868;28;20047;-67
2023/01/19 12:20:40;;;;;;;15.75;2.17;;;5.20;99.90;;;;;;5100838;28;20401;-68
2023/01/19 12:23:29;;;;;;;10.90;1.80;;;5.10;99.90;;;;;;5096930;28;20051;-66
2023/01/19 12:26:32;;;;;;;11.05;2.28;;;5.00;99.90;;;;;;5104737;28;20430;-65
2023/01/19 12:29:12;;;;;;;8.98;2.13;;;4.80;99.90;;;;;;5102913;28;20409;-68
2023/01/19 12:31:39;;;;;;;7.53;2.13;;;4.70;99.90;;;;;;5091645;28;20453;-67
2023/01/19 12:34:24;;;;;;;10.50;2.10;;;4.80;99.90;;;;;;5077570;28;20390;-67
2023/01/19 12:36:50;;;;;;;11.63;2.00;;;4.90;99.90;;;;;;5101098;28;20130;-66
2023/01/19 12:39:20;;;;;;;16.00;2.15;;;5.00;99.90;;;;;;5108948;28;20074;-66
2023/01/19 12:41:47;;;;;;;10.38;2.28;;;5.00;99.90;;;;;;5113159;28;20040;-67
2023/01/19 12:44:15;;;;;;;8.05;1.85;;;5.10;99.90;;;;;;5095041;28;20051;-67
2023/01/19 12:46:44;;;;;;;11.00;2.33;;;5.10;99.90;;;;;;5110047;28;20048;-66
2023/01/19 12:49:17;;;;;;;9.25;1.77;;;5.20;99.90;;;;;;5107457;28;20043;-67
2023/01/19 12:51:43;;;;;;;11.20;2.20;;;5.30;99.90;;;;;;5059975;28;20040;-67
2023/01/19 12:54:38;;;;;;;15.32;2.90;;;5.30;99.90;;;;;;5092861;28;20513;-67
2023/01/19 12:57:16;;;;;;;8.57;1.70;;;5.40;99.90;;;;;;5081032;28;20509;-67
2023/01/19 12:59:42;;;;;;;6.65;1.65;;;5.50;99.90;;;;;;5109706;28;20057;-67
2023/01/19 13:02:17;;;;;;;11.25;2.10;;;5.50;99.90;;;;;;5112315;28;20473;-66
2023/01/19 13:05:05;;;;;;;6.72;1.92;;;5.60;99.90;;;;;;5080260;28;20051;-67
2023/01/19 13:08:17;;;;;;;6.03;1.58;;;5.50;99.90;;;;;;5089108;28;20050;-69
2023/01/19 13:11:01;;;;;;;9.10;1.55;;;5.60;99.90;;;;;;5051797;28;20058;-67
2023/01/19 13:13:26;;;;;;;8.55;1.60;;;5.50;99.90;;;;;;5089467;28;20215;-66
2023/01/19 13:15:53;;;;;;;9.68;1.80;;;5.50;99.90;;;;;;5084203;28;20142;-66
2023/01/19 13:18:22;;;;;;;6.85;1.75;;;5.40;99.90;;;;;;5085099;28;20036;-67
2023/01/19 13:20:54;;;;;;;13.63;2.65;;;5.30;99.90;;;;;;5108579;28;20497;-67